createdAt,value
2018-03-31T00:00:44.643Z,7.70
2018-03-31T00:03:11.681Z,7.60
2018-03-31T00:05:38.698Z,7.60
2018-03-31T00:08:05.761Z,7.60
2018-03-31T00:10:32.783Z,7.50
2018-03-31T00:12:59.839Z,7.40
2018-03-31T00:15:26.906Z,7.40
2018-03-31T00:17:53.932Z,7.30
2018-03-31T00:20:20.969Z,7.20
2018-03-31T00:22:48.136Z,7.30
2018-03-31T00:25:15.190Z,7.30
2018-03-31T00:27:42.216Z,7.40
2018-03-31T00:30:09.295Z,7.50
2018-03-31T00:32:36.933Z,7.50
2018-03-31T00:35:03.952Z,7.50
2018-03-31T00:37:32.061Z,7.50
2018-03-31T00:39:59.077Z,7.40
2018-03-31T00:42:26.118Z,7.50
2018-03-31T00:44:54.026Z,7.50
2018-03-31T00:47:21.060Z,7.40
2018-03-31T00:49:48.120Z,7.40
2018-03-31T00:52:15.246Z,7.30
2018-03-31T00:54:42.262Z,7.40
2018-03-31T00:57:10.058Z,7.40
2018-03-31T00:59:37.215Z,7.30
2018-03-31T01:02:04.255Z,7.40
2018-03-31T01:04:31.288Z,7.40
2018-03-31T01:06:58.370Z,7.40
2018-03-31T01:09:25.513Z,7.50
2018-03-31T01:11:52.640Z,7.50
2018-03-31T01:14:19.705Z,7.40
2018-03-31T01:16:46.739Z,7.40
2018-03-31T01:19:13.782Z,7.50
2018-03-31T01:21:40.849Z,7.40
2018-03-31T01:24:07.887Z,7.40
2018-03-31T01:26:34.903Z,7.40
2018-03-31T01:29:02.793Z,7.40
2018-03-31T01:31:29.837Z,7.40
2018-03-31T01:33:56.859Z,7.40
2018-03-31T01:36:24.750Z,7.40
2018-03-31T01:38:51.766Z,7.40
2018-03-31T01:41:19.568Z,7.30
2018-03-31T01:43:46.706Z,7.20
2018-03-31T01:46:13.770Z,7.30
2018-03-31T01:48:40.826Z,7.30
2018-03-31T01:51:07.900Z,7.20
2018-03-31T01:53:36.507Z,7.20
2018-03-31T01:56:04.371Z,7.20
2018-03-31T01:58:32.196Z,7.20
2018-03-31T02:00:59.222Z,7.10
2018-03-31T02:03:26.266Z,7.20
2018-03-31T02:05:53.422Z,7.20
2018-03-31T02:08:20.446Z,7.20
2018-03-31T02:10:47.471Z,7.20
2018-03-31T02:13:15.367Z,7.20
2018-03-31T02:15:42.418Z,7.20
2018-03-31T02:18:09.445Z,7.10
2018-03-31T02:20:36.515Z,7.10
2018-03-31T02:23:03.533Z,7.00
2018-03-31T02:25:31.321Z,6.90
2018-03-31T02:27:58.463Z,6.80
2018-03-31T02:30:25.518Z,6.90
2018-03-31T02:32:52.548Z,6.90
2018-03-31T02:35:19.620Z,7.00
2018-03-31T02:37:46.651Z,7.00
2018-03-31T02:40:13.696Z,6.90
2018-03-31T02:42:40.846Z,6.80
2018-03-31T02:45:07.867Z,6.80
2018-03-31T02:47:35.660Z,6.60
2018-03-31T02:50:02.728Z,6.60
2018-03-31T02:52:29.775Z,6.50
2018-03-31T02:54:56.913Z,6.50
2018-03-31T02:57:23.968Z,6.40
2018-03-31T02:59:50.996Z,6.40
2018-03-31T03:02:18.044Z,6.40
2018-03-31T03:04:45.102Z,6.50
2018-03-31T03:07:12.213Z,6.50
2018-03-31T03:09:40.102Z,6.60
2018-03-31T03:12:07.167Z,6.60
2018-03-31T03:14:34.179Z,6.70
2018-03-31T03:17:01.350Z,6.70
2018-03-31T03:19:28.412Z,6.50
2018-03-31T03:21:55.433Z,6.40
2018-03-31T03:24:22.455Z,6.50
2018-03-31T03:26:50.270Z,6.40
2018-03-31T03:29:17.408Z,6.40
2018-03-31T03:31:44.442Z,6.20
2018-03-31T03:34:11.601Z,6.20
2018-03-31T03:36:38.621Z,6.00
2018-03-31T03:39:05.639Z,5.80
2018-03-31T03:41:32.716Z,5.70
2018-03-31T03:43:59.736Z,5.50
2018-03-31T03:46:27.645Z,5.30
2018-03-31T03:48:54.800Z,5.20
2018-03-31T03:51:21.845Z,5.20
2018-03-31T03:53:48.900Z,5.20
2018-03-31T03:56:16.559Z,5.40
2018-03-31T03:58:43.603Z,5.40
2018-03-31T04:01:10.743Z,5.40
2018-03-31T04:03:37.811Z,5.40
2018-03-31T04:06:04.937Z,5.30
2018-03-31T04:08:31.971Z,5.10
2018-03-31T04:10:59.038Z,5.00
2018-03-31T04:13:26.078Z,5.10
2018-03-31T04:15:53.100Z,5.00
2018-03-31T04:18:20.993Z,5.00
2018-03-31T04:20:48.021Z,4.90
2018-03-31T04:23:15.079Z,5.10
2018-03-31T04:25:42.454Z,5.00
2018-03-31T04:28:09.592Z,5.00
2018-03-31T04:30:36.619Z,4.90
2018-03-31T04:33:03.682Z,4.80
2018-03-31T04:35:30.729Z,4.70
2018-03-31T04:37:57.785Z,4.50
2018-03-31T04:40:24.929Z,4.40
2018-03-31T04:42:51.971Z,4.20
2018-03-31T04:45:19.002Z,4.10
2018-03-31T04:47:46.050Z,3.90
2018-03-31T04:50:13.085Z,4.10
2018-03-31T04:52:40.268Z,4.20
2018-03-31T04:55:07.329Z,4.10
2018-03-31T04:57:34.365Z,4.00
2018-03-31T05:00:01.400Z,3.80
2018-03-31T05:02:28.478Z,3.60
2018-03-31T05:04:55.522Z,3.40
2018-03-31T05:07:22.563Z,3.40
2018-03-31T05:09:49.629Z,3.40
2018-03-31T05:12:16.674Z,3.40
2018-03-31T05:14:44.475Z,3.40
2018-03-31T05:17:11.646Z,3.30
2018-03-31T05:19:38.678Z,3.20
2018-03-31T05:22:05.734Z,3.20
2018-03-31T05:24:32.801Z,3.10
2018-03-31T05:27:00.494Z,3.00
2018-03-31T05:29:27.535Z,3.00
2018-03-31T05:31:56.103Z,3.00
2018-03-31T05:34:23.224Z,3.00
2018-03-31T05:36:50.252Z,3.20
2018-03-31T05:39:17.313Z,3.30
2018-03-31T05:41:44.377Z,3.50
2018-03-31T05:44:11.416Z,3.50
2018-03-31T05:46:38.568Z,3.40
2018-03-31T05:49:05.606Z,3.40
2018-03-31T05:51:32.655Z,3.40
2018-03-31T05:53:59.813Z,3.30
2018-03-31T05:56:26.864Z,3.30
2018-03-31T05:58:53.986Z,3.30
2018-03-31T06:01:21.052Z,3.30
2018-03-31T06:03:48.065Z,3.60
2018-03-31T06:06:15.848Z,3.50
2018-03-31T06:08:42.917Z,3.50
2018-03-31T06:11:09.953Z,3.60
2018-03-31T06:13:36.987Z,3.70
2018-03-31T06:16:04.042Z,3.70
2018-03-31T06:18:31.074Z,3.70
2018-03-31T06:20:58.121Z,3.50
2018-03-31T06:23:25.284Z,3.50
2018-03-31T06:25:52.314Z,3.50
2018-03-31T06:28:19.329Z,3.60
2018-03-31T06:30:46.405Z,3.50
2018-03-31T06:33:13.474Z,3.50
2018-03-31T06:35:40.498Z,3.60
2018-03-31T06:38:07.578Z,3.60
2018-03-31T06:40:34.624Z,3.70
2018-03-31T06:43:01.655Z,3.90
2018-03-31T06:45:28.721Z,4.00
2018-03-31T06:47:55.774Z,4.00
2018-03-31T06:50:22.912Z,4.10
2018-03-31T06:52:49.997Z,4.20
2018-03-31T06:55:17.007Z,4.40
2018-03-31T06:57:44.041Z,4.50
2018-03-31T07:00:11.196Z,4.70
2018-03-31T07:02:38.245Z,4.80
2018-03-31T07:05:05.283Z,4.90
2018-03-31T07:07:32.337Z,5.00
2018-03-31T07:09:59.364Z,5.00
2018-03-31T07:12:26.525Z,5.10
2018-03-31T07:14:53.670Z,5.20
2018-03-31T07:17:20.686Z,5.20
2018-03-31T07:19:48.528Z,5.30
2018-03-31T07:22:16.356Z,5.50
2018-03-31T07:24:43.416Z,5.50
2018-03-31T07:27:10.440Z,5.70
2018-03-31T07:29:37.707Z,5.90
2018-03-31T07:32:04.731Z,5.90
2018-03-31T07:34:31.761Z,6.00
2018-03-31T07:36:59.671Z,6.10
2018-03-31T07:39:26.799Z,6.00
2018-03-31T07:41:53.844Z,6.20
2018-03-31T07:44:20.992Z,6.30
2018-03-31T07:46:48.036Z,6.20
2018-03-31T07:49:15.103Z,6.10
2018-03-31T07:51:42.234Z,6.00
2018-03-31T07:54:09.295Z,6.10
2018-03-31T07:56:36.516Z,6.30
2018-03-31T07:59:03.575Z,6.40
2018-03-31T08:01:30.643Z,6.40
2018-03-31T08:03:57.774Z,6.50
2018-03-31T08:06:24.844Z,6.60
2018-03-31T08:08:51.870Z,6.60
2018-03-31T08:11:18.915Z,6.70
2018-03-31T08:13:45.980Z,6.70
2018-03-31T08:16:13.108Z,6.70
2018-03-31T08:18:40.175Z,6.90
2018-03-31T08:21:07.313Z,7.00
2018-03-31T08:23:34.357Z,7.00
2018-03-31T08:26:01.385Z,7.00
2018-03-31T08:28:28.454Z,7.20
2018-03-31T08:30:55.501Z,7.20
2018-03-31T08:33:22.854Z,7.30
2018-03-31T08:35:49.972Z,7.40
2018-03-31T08:38:17.864Z,7.40
2018-03-31T08:40:44.895Z,7.40
2018-03-31T08:43:11.958Z,7.60
2018-03-31T08:45:39.006Z,7.70
2018-03-31T08:48:06.046Z,7.80
2018-03-31T08:50:33.200Z,7.80
2018-03-31T08:53:18.533Z,7.90
2018-03-31T08:55:57.097Z,8.10
2018-03-31T08:58:24.106Z,8.00
2018-03-31T09:00:51.925Z,8.30
2018-03-31T09:03:18.956Z,8.30
2018-03-31T09:05:46.075Z,8.50
2018-03-31T09:08:13.161Z,8.60
2018-03-31T09:10:40.204Z,8.70
2018-03-31T09:13:07.253Z,8.80
2018-03-31T09:15:34.344Z,8.90
2018-03-31T09:18:02.127Z,9.20
2018-03-31T09:20:30.019Z,9.40
2018-03-31T09:22:57.103Z,9.30
2018-03-31T09:25:24.923Z,9.60
2018-03-31T09:27:52.078Z,9.50
2018-03-31T09:30:19.164Z,9.60
2018-03-31T09:32:46.988Z,9.70
2018-03-31T09:35:14.016Z,9.60
2018-03-31T09:37:41.085Z,9.80
2018-03-31T09:40:08.132Z,10.00
2018-03-31T09:42:35.892Z,10.10
2018-03-31T09:45:03.063Z,10.30
2018-03-31T09:47:30.100Z,10.30
2018-03-31T09:49:57.251Z,10.30
2018-03-31T09:52:24.304Z,10.50
2018-03-31T09:54:51.426Z,10.60
2018-03-31T09:57:18.498Z,10.60
2018-03-31T09:59:45.559Z,10.70
2018-03-31T10:02:12.674Z,10.80
2018-03-31T10:04:39.715Z,10.80
2018-03-31T10:07:06.800Z,10.80
2018-03-31T10:09:33.929Z,10.70
2018-03-31T10:12:00.980Z,10.60
2018-03-31T10:14:28.142Z,10.50
2018-03-31T10:16:55.161Z,10.30
2018-03-31T10:19:22.193Z,10.40
2018-03-31T10:21:49.467Z,10.20
2018-03-31T10:24:16.606Z,10.40
2018-03-31T10:26:43.631Z,10.70
2018-03-31T10:29:11.478Z,11.00
2018-03-31T10:31:39.278Z,11.30
2018-03-31T10:34:06.312Z,11.20
2018-03-31T10:36:33.386Z,11.60
2018-03-31T10:39:00.522Z,11.90
2018-03-31T10:41:27.560Z,11.70
2018-03-31T10:43:54.733Z,11.40
2018-03-31T10:46:21.785Z,11.60
2018-03-31T10:48:48.809Z,12.00
2018-03-31T10:51:15.872Z,12.00
2018-03-31T10:53:42.912Z,11.90
2018-03-31T10:56:09.955Z,11.80
2018-03-31T10:58:37.024Z,11.70
2018-03-31T11:01:04.149Z,11.90
2018-03-31T11:03:31.205Z,11.80
2018-03-31T11:05:58.279Z,12.00
2018-03-31T11:08:25.408Z,12.10
2018-03-31T11:10:52.561Z,12.30
2018-03-31T11:13:19.614Z,12.60
2018-03-31T11:15:46.751Z,12.70
2018-03-31T11:18:13.775Z,12.90
2018-03-31T11:20:41.044Z,12.80
2018-03-31T11:23:08.101Z,12.70
2018-03-31T11:25:35.254Z,12.90
2018-03-31T11:28:02.382Z,12.80
2018-03-31T11:30:29.457Z,12.60
2018-03-31T11:32:56.593Z,12.30
2018-03-31T11:35:23.661Z,12.40
2018-03-31T11:37:50.689Z,12.20
2018-03-31T11:40:17.837Z,12.20
2018-03-31T11:42:44.886Z,12.40
2018-03-31T11:45:11.910Z,12.50
2018-03-31T11:47:38.953Z,12.70
2018-03-31T11:50:06.105Z,12.80
2018-03-31T11:52:33.159Z,13.30
2018-03-31T11:55:00.182Z,13.60
2018-03-31T11:57:27.357Z,13.70
2018-03-31T11:59:54.402Z,13.60
2018-03-31T12:02:21.426Z,13.40
2018-03-31T12:04:48.488Z,13.20
2018-03-31T12:07:15.539Z,13.10
2018-03-31T12:09:42.579Z,12.90
2018-03-31T12:12:09.652Z,13.00
2018-03-31T12:14:36.676Z,13.10
2018-03-31T12:17:03.725Z,13.00
2018-03-31T12:19:30.824Z,13.00
2018-03-31T12:21:57.912Z,12.70
2018-03-31T12:24:24.940Z,12.60
2018-03-31T12:26:52.773Z,12.60
2018-03-31T12:29:19.875Z,12.50
2018-03-31T12:31:46.912Z,13.00
2018-03-31T12:34:14.897Z,13.30
2018-03-31T12:36:41.970Z,13.80
2018-03-31T12:39:08.996Z,15.40
2018-03-31T12:41:36.057Z,16.60
2018-03-31T12:44:03.086Z,17.00
2018-03-31T12:46:30.128Z,16.70
2018-03-31T12:48:57.182Z,16.40
2018-03-31T12:51:24.198Z,15.80
2018-03-31T12:53:51.262Z,15.80
2018-03-31T12:56:18.423Z,15.70
2018-03-31T12:58:45.446Z,15.40
2018-03-31T13:01:12.478Z,14.10
2018-03-31T13:03:40.482Z,13.50
2018-03-31T13:06:07.519Z,13.40
2018-03-31T13:08:34.567Z,13.40
2018-03-31T13:11:01.936Z,13.70
2018-03-31T13:13:28.949Z,13.60
2018-03-31T13:15:55.974Z,13.40
2018-03-31T13:18:23.786Z,13.70
2018-03-31T13:20:50.828Z,13.70
2018-03-31T13:23:17.843Z,13.80
2018-03-31T13:25:45.688Z,14.40
2018-03-31T13:28:12.786Z,14.30
2018-03-31T13:30:39.831Z,15.00
2018-03-31T13:33:06.891Z,15.70
2018-03-31T13:35:34.023Z,16.40
2018-03-31T13:38:01.047Z,15.80
2018-03-31T13:40:28.882Z,15.50
2018-03-31T13:42:55.909Z,15.40
2018-03-31T13:45:22.935Z,15.60
2018-03-31T13:47:49.996Z,15.60
2018-03-31T13:50:17.008Z,15.20
2018-03-31T13:52:44.095Z,15.10
2018-03-31T13:55:11.151Z,14.90
2018-03-31T13:57:38.268Z,14.80
2018-03-31T14:00:05.327Z,14.60
2018-03-31T14:02:32.466Z,14.20
2018-03-31T14:05:00.931Z,13.70
2018-03-31T14:07:27.978Z,13.70
2018-03-31T14:09:55.047Z,13.60
2018-03-31T14:12:22.182Z,13.70
2018-03-31T14:14:49.203Z,13.70
2018-03-31T14:17:16.274Z,13.80
2018-03-31T14:19:43.312Z,14.00
2018-03-31T14:22:10.361Z,14.20
2018-03-31T14:24:37.446Z,14.40
2018-03-31T14:27:04.473Z,14.70
2018-03-31T14:29:31.500Z,14.80
2018-03-31T14:31:58.654Z,14.70
2018-03-31T14:34:25.708Z,14.50
2018-03-31T14:36:52.727Z,14.50
2018-03-31T14:39:20.542Z,14.20
2018-03-31T14:41:47.672Z,14.20
2018-03-31T14:44:14.723Z,13.50
2018-03-31T14:46:41.940Z,13.10
2018-03-31T14:49:08.987Z,13.20
2018-03-31T14:51:36.020Z,13.00
2018-03-31T14:54:03.852Z,13.00
2018-03-31T14:56:30.896Z,12.90
2018-03-31T14:58:57.929Z,13.00
2018-03-31T15:01:25.034Z,13.20
2018-03-31T15:03:53.036Z,13.50
2018-03-31T15:06:20.077Z,13.40
2018-03-31T15:08:47.138Z,13.70
2018-03-31T15:11:14.155Z,14.20
2018-03-31T15:13:41.188Z,14.70
2018-03-31T15:16:09.005Z,15.30
2018-03-31T15:18:36.151Z,15.20
2018-03-31T15:21:04.040Z,15.50
2018-03-31T15:23:31.109Z,15.30
2018-03-31T15:25:58.899Z,14.90
2018-03-31T15:28:25.994Z,14.90
2018-03-31T15:30:53.106Z,14.90
2018-03-31T15:33:20.165Z,14.70
2018-03-31T15:35:47.306Z,14.60
2018-03-31T15:38:14.381Z,14.60
2018-03-31T15:40:41.414Z,14.50
2018-03-31T15:43:08.574Z,14.40
2018-03-31T15:45:35.677Z,14.20
2018-03-31T15:48:02.720Z,14.20
2018-03-31T15:50:29.751Z,13.80
2018-03-31T15:52:57.592Z,13.00
2018-03-31T15:55:24.646Z,12.90
2018-03-31T15:57:51.747Z,12.60
2018-03-31T16:00:18.866Z,12.40
2018-03-31T16:02:46.656Z,12.20
2018-03-31T16:05:13.694Z,12.10
2018-03-31T16:07:40.753Z,12.00
2018-03-31T16:10:07.789Z,11.90
2018-03-31T16:12:34.854Z,11.80
2018-03-31T16:15:01.989Z,11.70
2018-03-31T16:17:29.007Z,11.60
2018-03-31T16:19:56.805Z,11.60
2018-03-31T16:22:23.873Z,11.50
2018-03-31T16:24:50.992Z,11.50
2018-03-31T16:27:18.052Z,11.50
2018-03-31T16:29:45.125Z,11.40
2018-03-31T16:32:12.178Z,11.40
2018-03-31T16:34:39.245Z,11.40
2018-03-31T16:37:06.333Z,11.40
2018-03-31T16:39:33.382Z,11.40
2018-03-31T16:42:00.436Z,11.40
2018-03-31T16:44:27.511Z,11.40
2018-03-31T16:46:54.553Z,11.60
2018-03-31T16:49:21.578Z,11.70
2018-03-31T16:51:48.645Z,11.90
2018-03-31T16:54:15.839Z,11.90
2018-03-31T16:56:42.930Z,12.20
2018-03-31T16:59:10.010Z,12.80
2018-03-31T17:01:37.094Z,13.40
2018-03-31T17:04:04.171Z,13.60
2018-03-31T17:06:31.308Z,13.60
2018-03-31T17:08:58.339Z,13.00
2018-03-31T17:11:25.359Z,12.50
2018-03-31T17:13:53.272Z,11.60
2018-03-31T17:16:20.288Z,11.50
2018-03-31T17:18:47.320Z,11.20
2018-03-31T17:21:15.226Z,10.70
2018-03-31T17:23:42.262Z,10.60
2018-03-31T17:26:09.316Z,10.40
2018-03-31T17:28:36.454Z,10.10
2018-03-31T17:31:03.520Z,10.00
2018-03-31T17:33:30.550Z,9.90
2018-03-31T17:35:57.804Z,9.80
2018-03-31T17:38:24.822Z,9.70
2018-03-31T17:40:52.724Z,9.70
2018-03-31T17:43:19.831Z,9.70
2018-03-31T17:45:47.640Z,9.50
2018-03-31T17:48:14.673Z,9.50
2018-03-31T17:50:42.096Z,9.30
2018-03-31T17:53:09.912Z,9.10
2018-03-31T17:55:36.968Z,9.10
2018-03-31T17:58:04.208Z,9.00
2018-03-31T18:00:31.253Z,8.90
2018-03-31T18:02:58.282Z,8.90
2018-03-31T18:05:25.428Z,8.90
2018-03-31T18:07:52.484Z,8.90
2018-03-31T18:10:19.509Z,8.80
2018-03-31T18:12:47.344Z,8.60
2018-03-31T18:15:15.260Z,8.40
2018-03-31T18:17:42.313Z,8.40
2018-03-31T18:20:09.487Z,8.40
2018-03-31T18:22:36.615Z,8.30
2018-03-31T18:25:03.648Z,8.30
2018-03-31T18:27:30.720Z,8.10
2018-03-31T18:29:57.880Z,8.00
2018-03-31T18:32:25.704Z,7.90
2018-03-31T18:34:52.763Z,7.80
2018-03-31T18:37:19.823Z,7.70
2018-03-31T18:39:46.955Z,7.70
2018-03-31T18:42:14.035Z,7.80
2018-03-31T18:44:41.114Z,7.80
2018-03-31T18:47:08.143Z,7.80
2018-03-31T18:49:35.190Z,7.80
2018-03-31T18:52:02.228Z,7.80
2018-03-31T18:54:29.348Z,7.80
2018-03-31T18:56:56.415Z,7.70
2018-03-31T18:59:23.456Z,7.70
2018-03-31T19:01:50.583Z,7.60
2018-03-31T19:04:17.656Z,7.60
2018-03-31T19:06:44.700Z,7.50
2018-03-31T19:09:11.741Z,7.50
2018-03-31T19:11:38.803Z,7.40
2018-03-31T19:14:05.918Z,7.20
2018-03-31T19:16:38.592Z,7.10
2018-03-31T19:19:05.634Z,7.10
2018-03-31T19:21:32.685Z,7.00
2018-03-31T19:23:59.757Z,7.00
2018-03-31T19:26:26.800Z,6.70
2018-03-31T19:28:53.821Z,6.60
2018-03-31T19:31:20.971Z,6.60
2018-03-31T19:33:48.005Z,6.70
2018-03-31T19:36:16.777Z,6.70
2018-03-31T19:38:44.600Z,6.70
2018-03-31T19:41:11.718Z,6.70
2018-03-31T19:43:38.764Z,6.80
2018-03-31T19:46:05.828Z,6.90
2018-03-31T19:48:32.882Z,6.80
2018-03-31T19:50:59.922Z,6.90
2018-03-31T19:53:26.996Z,6.90
2018-03-31T19:55:54.135Z,6.90
2018-03-31T19:58:21.268Z,6.90
2018-03-31T20:00:48.314Z,7.00
2018-03-31T20:03:15.368Z,6.90
2018-03-31T20:05:42.395Z,6.90
2018-03-31T20:08:09.459Z,6.90
2018-03-31T20:10:36.604Z,6.80
2018-03-31T20:13:03.631Z,6.80
2018-03-31T20:15:30.694Z,6.70
2018-03-31T20:17:57.738Z,6.70
2018-03-31T20:20:24.820Z,6.70
2018-03-31T20:22:51.887Z,6.70
2018-03-31T20:25:19.716Z,6.50
2018-03-31T20:27:46.743Z,6.50
2018-03-31T20:30:13.896Z,6.50
2018-03-31T20:32:40.918Z,6.50
2018-03-31T20:35:07.950Z,6.50
2018-03-31T20:37:35.041Z,6.50
2018-03-31T20:40:02.060Z,6.50
2018-03-31T20:42:29.130Z,6.50
2018-03-31T20:44:56.230Z,6.40
2018-03-31T20:47:24.170Z,6.30
2018-03-31T20:49:51.986Z,6.30
2018-03-31T20:52:19.068Z,6.30
2018-03-31T20:54:46.208Z,6.20
2018-03-31T20:57:13.238Z,6.20
2018-03-31T20:59:40.392Z,6.20
2018-03-31T21:02:07.441Z,6.20
2018-03-31T21:04:34.496Z,6.10
2018-03-31T21:07:01.659Z,6.20
2018-03-31T21:09:28.681Z,6.20
2018-03-31T21:11:55.722Z,6.20
2018-03-31T21:14:22.791Z,6.20
2018-03-31T21:16:49.915Z,6.30
2018-03-31T21:19:16.977Z,6.30
2018-03-31T21:21:44.056Z,6.30
2018-03-31T21:24:11.078Z,6.30
2018-03-31T21:26:38.210Z,6.30
2018-03-31T21:29:05.375Z,6.30
2018-03-31T21:31:32.409Z,6.30
2018-03-31T21:33:59.426Z,6.20
2018-03-31T21:36:27.258Z,6.00
2018-03-31T21:38:54.360Z,6.00
2018-03-31T21:41:21.402Z,6.00
2018-03-31T21:43:48.663Z,6.00
2018-03-31T21:46:15.891Z,5.90
2018-03-31T21:48:43.011Z,5.80
2018-03-31T21:51:10.865Z,5.80
2018-03-31T21:53:37.987Z,5.70
2018-03-31T21:56:05.228Z,5.80
2018-03-31T21:58:33.618Z,5.70
2018-03-31T22:01:00.772Z,5.70
2018-03-31T22:03:27.795Z,5.60
2018-03-31T22:05:54.851Z,5.60
2018-03-31T22:08:21.879Z,5.60
2018-03-31T22:10:48.903Z,5.60
2018-03-31T22:13:22.376Z,5.50
2018-03-31T22:15:49.397Z,5.50
2018-03-31T22:18:16.514Z,5.50
2018-03-31T22:20:43.580Z,5.60
2018-03-31T22:23:10.629Z,5.70
2018-03-31T22:25:37.672Z,5.70
2018-03-31T22:28:04.840Z,5.60
2018-03-31T22:30:31.976Z,5.70
2018-03-31T22:32:59.117Z,5.60
2018-03-31T22:35:26.282Z,5.70
2018-03-31T22:37:53.309Z,5.80
2018-03-31T22:40:20.340Z,5.90
2018-03-31T22:42:47.408Z,5.90
2018-03-31T22:45:14.442Z,5.90
2018-03-31T22:47:41.469Z,5.80
2018-03-31T22:50:09.292Z,5.70
2018-03-31T22:52:36.407Z,5.70
2018-03-31T22:55:03.441Z,5.70
2018-03-31T22:57:30.512Z,5.60
2018-03-31T22:59:57.553Z,5.60
2018-03-31T23:02:24.610Z,5.50
2018-03-31T23:04:51.734Z,5.50
2018-03-31T23:07:18.755Z,5.40
2018-03-31T23:09:46.549Z,5.50
2018-03-31T23:12:13.711Z,5.40
2018-03-31T23:14:40.746Z,5.50
2018-03-31T23:17:07.799Z,5.60
2018-03-31T23:19:34.872Z,5.60
2018-03-31T23:22:01.896Z,5.60
2018-03-31T23:24:28.920Z,5.40
2018-03-31T23:26:56.806Z,5.60
2018-03-31T23:29:23.860Z,5.50
2018-03-31T23:31:50.899Z,5.70
2018-03-31T23:34:17.977Z,5.60
2018-03-31T23:36:45.112Z,5.60
2018-03-31T23:39:12.179Z,5.60
2018-03-31T23:41:40.105Z,5.50
2018-03-31T23:44:07.147Z,5.50
2018-03-31T23:46:34.181Z,5.50
2018-03-31T23:49:01.251Z,5.40
2018-03-31T23:51:28.305Z,5.40
2018-03-31T23:53:55.342Z,5.40
2018-03-31T23:56:22.424Z,5.30
2018-03-31T23:58:49.539Z,5.40
